Time;durP1;ratioP1;P1;durP2;ratioP2;P2;SDS_P1;SDS_P2;PMS_P1;PMS_P2;Temp;Humidity;BMP_temperature;BMP_pressure;BME280_temperature;BME280_humidity;BME280_pressure;Samples;Min_cycle;Max_cycle;Signal;HPM_P1;HPM_P2
2023/10/12 00:01:57;;;;;;;2.75;1.60;;;;;;;11.89;55.31;100735.69;6302751;22;20082;-80
2023/10/12 00:04:36;;;;;;;3.50;1.88;;;;;;;12.10;55.84;100769.13;6303621;22;20321;-80
2023/10/12 00:07:09;;;;;;;3.58;1.45;;;;;;;11.90;55.92;100740.09;6305284;22;20007;-81
2023/10/12 00:09:35;;;;;;;3.30;1.58;;;;;;;12.12;56.02;100770.00;6304585;22;20007;-80
2023/10/12 00:12:07;;;;;;;;;;;;;;;12.04;56.15;100763.88;6305104;22;20003;-80
2023/10/12 00:14:34;;;;;;;1.80;1.10;;;;;;;11.90;56.21;100755.94;6304492;22;20390;-81
2023/10/12 00:16:59;;;;;;;3.72;1.65;;;;;;;11.78;56.70;100746.28;6305422;22;20003;-80
2023/10/12 00:19:25;;;;;;;;;;;;;;;11.74;56.74;100729.56;6305223;22;20014;-81
2023/10/12 00:22:02;;;;;;;4.95;1.58;;;;;;;11.83;56.99;100749.78;6304793;22;19960;-81
2023/10/12 00:24:28;;;;;;;5.70;1.52;;;;;;;11.91;56.94;100745.38;6305097;22;20015;-81
2023/10/12 00:26:53;;;;;;;;;;;;;;;11.89;57.17;100743.59;6305134;22;20017;-80
2023/10/12 00:29:19;;;;;;;2.75;1.58;;;;;;;11.61;56.87;100709.34;6328950;22;19934;-80
2023/10/12 00:31:47;;;;;;;;;;;;;;;11.85;57.19;100748.03;6305392;22;20499;-80
2023/10/12 00:34:12;;;;;;;2.35;1.65;;;;;;;11.81;57.25;100727.78;6304666;22;19903;-81
2023/10/12 00:36:40;;;;;;;;;;;;;;;11.74;57.92;100740.13;6305258;22;19999;-81
2023/10/12 00:39:14;;;;;;;2.97;1.48;;;;;;;11.65;58.24;100729.59;6305267;22;19907;-81
2023/10/12 00:41:44;;;;;;;4.10;2.17;;;;;;;11.65;58.29;100734.88;6304888;22;20003;-83
2023/10/12 00:44:12;;;;;;;3.90;1.83;;;;;;;11.57;57.89;100710.22;6304265;22;20021;-81
2023/10/12 00:47:19;;;;;;;4.28;2.15;;;;;;;11.56;57.72;100696.13;6303640;22;20461;-82
2023/10/12 00:49:34;;;;;;;5.68;2.42;;;;;;;11.63;58.21;100715.47;6298380;22;20069;-82
2023/10/12 00:52:08;;;;;;;3.38;1.73;;;;;;;11.45;57.99;100692.66;6304671;22;20003;-83
2023/10/12 00:57:05;;;;;;;7.72;1.95;;;;;;;11.52;58.37;100714.66;6304566;22;20045;-81
2023/10/12 00:59:34;;;;;;;3.92;1.88;;;;;;;11.60;58.47;100726.06;6304748;22;20003;-83
2023/10/12 01:02:08;;;;;;;4.68;2.17;;;;;;;11.42;58.13;100696.19;6304633;22;20037;-82
2023/10/12 01:04:35;;;;;;;6.30;3.65;;;;;;;11.50;58.03;100690.88;6304831;22;19999;-81
2023/10/12 01:07:01;;;;;;;10.40;2.28;;;;;;;11.42;58.31;100682.09;6303178;22;20064;-81
2023/10/12 01:09:38;;;;;;;;;;;;;;;11.47;58.84;100726.09;6305052;22;20031;-82
2023/10/12 01:12:06;;;;;;;4.32;2.38;;;;;;;11.56;59.04;100729.63;6305301;22;19951;-82
2023/10/12 01:14:32;;;;;;;7.15;2.00;;;;;;;11.45;59.13;100719.06;6304943;22;20429;-81
2023/10/12 01:19:23;;;;;;;5.63;2.08;;;;;;;11.35;58.49;100699.69;6304622;22;19982;-82
2023/10/12 01:21:54;;;;;;;;;;;;;;;11.57;58.39;100729.63;6304890;22;20038;-81
2023/10/12 01:24:29;;;;;;;2.70;1.77;;;;;;;11.47;58.65;100717.31;6304628;22;19938;-83
2023/10/12 01:26:55;;;;;;;3.80;2.50;;;;;;;11.37;58.69;100699.69;6304323;22;20007;-83
2023/10/12 01:29:20;;;;;;;;;;;;;;;11.40;58.98;100716.44;6304587;22;19999;-82
2023/10/12 01:32:20;;;;;;;7.38;2.42;;;;;;;11.32;58.98;100709.41;6304236;22;19909;-83
2023/10/12 01:34:44;;;;;;;7.53;2.50;;;;;;;11.16;59.90;100720.00;6304214;22;20007;-83
2023/10/12 01:37:28;;;;;;;10.23;2.97;;;;;;;11.21;59.65;100694.44;6303897;22;20298;-82
2023/10/12 01:39:58;;;;;;;4.55;2.13;;;;;;;10.87;58.88;100625.84;6303916;22;20007;-82
2023/10/12 01:42:49;;;;;;;7.55;3.53;;;;;;;11.14;59.19;100695.34;6304190;22;20010;-81
2023/10/12 01:47:56;;;;;;;6.15;2.55;;;;;;;10.99;59.84;100676.91;6304536;22;20350;-81
2023/10/12 01:50:25;;;;;;;6.93;2.88;;;;;;;11.16;59.70;100701.50;6304151;22;20101;-81
2023/10/12 01:52:52;;;;;;;6.18;3.05;;;;;;;11.00;60.02;100691.84;6304139;22;20066;-81
2023/10/12 01:55:28;;;;;;;7.78;2.53;;;;;;;11.10;60.04;100718.22;6304255;22;20050;-81
2023/10/12 01:57:54;;;;;;;4.35;2.58;;;;;;;11.09;60.43;100712.94;6304693;22;20379;-80
2023/10/12 02:00:25;;;;;;;;;;;;;;;11.18;60.07;100720.84;6304235;22;19999;-81
2023/10/12 02:03:00;;;;;;;4.38;2.80;;;;;;;11.06;60.25;100697.09;6304205;22;20243;-81
2023/10/12 02:05:29;;;;;;;3.92;2.50;;;;;;;11.28;59.82;100717.34;6303968;22;20072;-82
2023/10/12 02:07:55;;;;;;;14.77;3.72;;;;;;;11.05;59.89;100704.16;6303938;22;20007;-81
2023/10/12 02:10:24;;;;;;;6.28;2.88;;;;;;;11.10;60.33;100702.38;6304005;22;20014;-81
2023/10/12 02:12:55;;;;;;;6.75;3.58;;;;;;;10.75;60.70;100665.44;6304199;22;20026;-80
2023/10/12 02:15:24;;;;;;;7.45;3.92;;;;;;;10.82;60.78;100698.03;6304304;22;20094;-81
2023/10/12 02:17:50;;;;;;;6.72;3.83;;;;;;;10.86;61.13;100713.84;6304331;22;20007;-80
2023/10/12 02:20:15;;;;;;;;;;;;;;;10.86;61.60;100713.84;6304351;22;20195;-81
2023/10/12 02:22:41;;;;;;;10.55;3.67;;;;;;;10.74;61.92;100698.88;6304364;22;19914;-81
2023/10/12 02:25:18;;;;;;;;;;;;;;;10.73;62.60;100720.00;6304383;22;20441;-82
2023/10/12 02:27:54;;;;;;;9.13;4.28;;;;;;;10.67;62.96;100725.28;6304050;22;19907;-81
2023/10/12 02:30:28;;;;;;;12.57;4.78;;;;;;;10.47;62.04;100683.94;6304013;22;20011;-80
2023/10/12 02:33:07;;;;;;;7.53;3.92;;;;;;;10.47;61.31;100706.78;6303843;22;20056;-80
2023/10/12 02:35:44;;;;;;;8.18;3.70;;;;;;;10.30;62.84;100717.25;6303782;22;20512;-80
2023/10/12 02:38:14;;;;;;;11.82;3.40;;;;;;;10.10;62.49;100704.91;6303667;22;20464;-80
2023/10/12 02:40:41;;;;;;;7.10;3.72;;;;;;;10.04;63.31;100703.13;6303517;22;20011;-79
2023/10/12 02:43:09;;;;;;;10.57;4.00;;;;;;;10.03;63.88;100695.22;6303673;22;19999;-79
2023/10/12 02:45:40;;;;;;;9.55;3.75;;;;;;;10.26;63.88;100705.84;6304158;22;20003;-80
2023/10/12 02:48:12;;;;;;;6.30;3.25;;;;;;;10.42;62.99;100706.78;6305747;22;20029;-81
2023/10/12 02:50:57;;;;;;;8.38;3.53;;;;;;;10.47;62.79;100706.78;6303916;22;20014;-79
2023/10/12 02:53:28;;;;;;;5.07;3.08;;;;;;;10.40;62.66;100697.97;6303422;22;20011;-79
2023/10/12 02:55:58;;;;;;;4.22;2.53;;;;;;;10.44;62.90;100712.94;6303778;22;20003;-80
2023/10/12 02:58:24;;;;;;;6.47;3.28;;;;;;;10.33;63.12;100698.84;6304071;22;20396;-79
2023/10/12 03:00:56;;;;;;;16.55;3.95;;;;;;;10.29;63.79;100689.16;6303387;22;20383;-79
2023/10/12 03:05:51;;;;;;;7.70;3.72;;;;;;;10.45;63.55;100709.41;6303107;22;20090;-81
2023/10/12 03:08:19;;;;;;;5.13;3.28;;;;;;;10.02;63.44;100636.38;6303544;22;20061;-82
2023/10/12 03:11:31;;;;;;;5.03;2.90;;;;;;;10.22;64.06;100672.41;6303667;22;19999;-82
2023/10/12 03:13:35;;;;;;;7.50;4.65;;;;;;;10.25;64.55;100684.72;6286226;22;20358;-83
2023/10/12 03:16:21;;;;;;;5.72;3.45;;;;;;;10.38;64.83;100727.00;6303555;22;20083;-84
2023/10/12 03:18:57;;;;;;;5.15;3.58;;;;;;;10.32;64.39;100707.63;6303582;22;20007;-83
2023/10/12 03:21:27;;;;;;;5.15;3.60;;;;;;;10.25;64.32;100676.81;6303471;22;20003;-82
2023/10/12 03:23:56;;;;;;;4.47;3.28;;;;;;;10.50;64.33;100715.59;6302689;22;20012;-83
2023/10/12 03:26:24;;;;;;;9.52;3.70;;;;;;;10.29;64.05;100668.91;6303455;22;20086;-82
2023/10/12 03:28:59;;;;;;;5.63;3.20;;;;;;;10.36;64.19;100686.56;6301497;22;20458;-82
2023/10/12 03:31:33;;;;;;;10.53;4.27;;;;;;;10.25;63.45;100661.00;6303069;22;20003;-82
2023/10/12 03:34:00;;;;;;;9.23;4.10;;;;;;;10.20;64.06;100668.91;6302808;22;20004;-83
2023/10/12 03:36:32;;;;;;;7.60;3.42;;;;;;;10.10;64.69;100685.56;6302841;22;20015;-82
2023/10/12 03:44:19;;;;;;;9.05;4.07;;;;;;;10.21;64.98;100689.13;6305463;22;20005;-87
2023/10/12 03:46:57;;;;;;;13.48;5.85;;;;;;;10.24;65.44;100696.16;6302932;22;20194;-82
2023/10/12 03:49:32;;;;;;;11.73;5.10;;;;;;;10.07;65.22;100689.09;6305581;22;20003;-80
2023/10/12 03:52:09;;;;;;;7.15;4.22;;;;;;;10.20;64.83;100680.31;6304842;22;20089;-83
2023/10/12 03:54:35;;;;;;;17.65;4.70;;;;;;;9.98;64.61;100658.31;6305694;22;20210;-83
2023/10/12 03:59:44;;;;;;;15.38;3.95;;;;;;;10.14;64.52;100677.66;6305007;22;20416;-82
2023/10/12 04:02:15;;;;;;;;;;;;;;;10.29;65.15;100708.47;6305139;22;20031;-84
2023/10/12 04:07:59;;;;;;;6.82;4.13;;;;;;;10.31;64.83;100709.34;6278614;22;20065;-83
2023/10/12 04:19:29;;;;;;;8.75;4.25;;;;;;;10.10;65.84;100702.28;6303821;22;20005;-82
2023/10/12 04:21:27;;;;;;;5.95;3.95;;;;;;;9.98;65.31;100670.63;6290906;22;20353;-82
2023/10/12 04:26:38;;;;;;;5.13;3.73;;;;;;;9.98;65.10;100660.06;6302024;22;20073;-83
2023/10/12 04:29:22;;;;;;;;;;;;;;;10.07;65.81;100704.91;6302502;22;20230;-83
2023/10/12 04:31:56;;;;;;;20.83;5.35;;;;;;;9.84;66.06;100671.44;6302276;22;19907;-83
2023/10/12 04:34:27;;;;;;;7.68;4.63;;;;;;;10.03;66.26;100709.28;6301503;22;20007;-82
2023/10/12 04:37:08;;;;;;;7.25;4.72;;;;;;;9.89;66.18;100673.22;6302067;22;20004;-82
2023/10/12 04:39:37;;;;;;;10.10;6.55;;;;;;;9.73;66.93;100651.19;6302299;22;20078;-82
2023/10/12 04:42:20;;;;;;;9.15;4.72;;;;;;;10.01;67.79;100700.50;6301509;22;20454;-83
2023/10/12 04:45:02;;;;;;;18.23;4.95;;;;;;;10.03;68.02;100693.47;6302560;22;20019;-82
2023/10/12 04:47:30;;;;;;;13.27;4.63;;;;;;;9.83;67.93;100660.91;6302301;22;20010;-85
2023/10/12 04:49:57;;;;;;;17.13;4.90;;;;;;;9.97;68.37;100687.28;6301275;22;20004;-83
2023/10/12 04:52:32;;;;;;;8.77;5.35;;;;;;;10.17;69.25;100674.16;6302563;22;20003;-82
2023/10/12 04:55:06;;;;;;;21.73;4.38;;;;;;;10.52;68.83;100681.31;6302860;22;19999;-82
2023/10/12 04:57:34;;;;;;;17.13;5.70;;;;;;;11.00;68.70;100694.47;6301639;22;20007;-82
2023/10/12 05:07:57;;;;;;;10.15;4.55;;;;;;;11.47;65.29;100696.16;6236787;23;20000;-82
2023/10/12 05:13:05;;;;;;;18.00;5.20;;;;;;;11.16;64.99;100716.47;6237845;23;20119;-82
2023/10/12 05:15:41;;;;;;;11.45;4.78;;;;;;;10.98;65.99;100701.53;6238694;23;20012;-81
2023/10/12 05:18:11;;;;;;;13.95;5.97;;;;;;;10.66;66.98;100682.19;6236210;23;20366;-84
2023/10/12 05:20:41;;;;;;;9.70;5.18;;;;;;;10.88;66.89;100708.56;6236555;23;20008;-83
2023/10/12 05:23:06;;;;;;;10.57;5.05;;;;;;;10.82;67.08;100684.81;6234859;23;20023;-81
2023/10/12 05:28:18;;;;;;;6.30;4.20;;;;;;;11.00;67.58;100705.03;6237863;23;20078;-84
2023/10/12 05:30:55;;;;;;;9.27;4.70;;;;;;;11.10;67.67;100705.03;6237911;23;20493;-81
2023/10/12 05:36:10;;;;;;;10.18;3.92;;;;;;;11.03;67.52;100674.25;6238597;23;20066;-81
2023/10/12 05:38:36;;;;;;;9.50;5.10;;;;;;;10.92;67.17;100668.97;6239596;23;20577;-82
2023/10/12 05:41:08;;;;;;;10.35;4.82;;;;;;;11.06;67.40;100668.06;6237086;23;20070;-82
2023/10/12 05:43:36;;;;;;;31.05;5.03;;;;;;;11.40;67.31;100720.81;6298940;22;20011;-82
2023/10/12 05:46:10;;;;;;;7.25;4.65;;;;;;;11.33;67.03;100664.50;6300534;22;20014;-82
2023/10/12 05:48:45;;;;;;;9.23;5.05;;;;;;;11.62;66.53;100674.97;6301764;22;20007;-83
2023/10/12 05:51:18;;;;;;;10.05;5.30;;;;;;;12.03;66.13;100702.13;6303019;22;20061;-83
2023/10/12 05:54:02;;;;;;;16.45;4.82;;;;;;;12.11;64.75;100662.44;6303408;22;20389;-83
2023/10/12 05:56:33;;;;;;;8.43;3.88;;;;;;;12.64;63.66;100681.50;6300903;22;20003;-83
2023/10/12 05:58:58;;;;;;;12.32;6.25;;;;;;;13.08;62.43;100720.84;6298441;22;20083;-84
2023/10/12 06:01:32;;;;;;;;;;;;;;;13.28;60.76;100732.13;6300740;22;20026;-82
2023/10/12 06:04:07;;;;;;;9.80;5.32;;;;;;;13.39;60.50;100696.72;6300523;22;19907;-83
2023/10/12 06:06:41;;;;;;;16.25;5.65;;;;;;;13.57;60.35;100737.19;6300911;22;20338;-80
2023/10/12 06:09:23;;;;;;;19.45;6.10;;;;;;;13.57;59.72;100729.22;6299507;22;20060;-82
2023/10/12 06:11:51;;;;;;;14.27;5.88;;;;;;;13.38;59.50;100699.41;6299790;22;19999;-82
2023/10/12 06:14:20;;;;;;;11.27;5.88;;;;;;;13.72;60.11;100728.19;6299713;22;20003;-81
2023/10/12 06:16:55;;;;;;;12.40;6.90;;;;;;;14.02;58.66;100710.13;6300372;22;20082;-84
2023/10/12 06:19:26;;;;;;;14.35;7.03;;;;;;;13.96;58.31;100668.63;6299292;22;20076;-83
2023/10/12 06:21:53;;;;;;;25.73;6.82;;;;;;;14.59;56.98;100714.63;6299763;22;20014;-83
2023/10/12 06:24:30;;;;;;;7.93;4.82;;;;;;;13.93;58.16;100719.06;6298146;22;20338;-82
2023/10/12 06:26:55;;;;;;;12.07;4.05;;;;;;;13.97;58.49;100713.72;6299994;22;20366;-83
2023/10/12 06:29:28;;;;;;;;;;;;;;;14.40;57.63;100736.16;6299755;22;20003;-83
2023/10/12 06:31:54;;;;;;;5.10;2.72;;;;;;;14.73;56.08;100696.72;6299855;22;19929;-83
2023/10/12 06:34:21;;;;;;;7.15;3.30;;;;;;;15.24;55.59;100709.16;6300438;22;20011;-80
2023/10/12 06:36:48;;;;;;;10.55;2.97;;;;;;;15.60;53.67;100696.09;6299041;22;19999;-83
2023/10/12 06:46:50;;;;;;;10.50;3.83;;;;;;;15.28;53.26;100671.00;6298629;22;20025;-82
2023/10/12 06:49:24;;;;;;;7.60;3.25;;;;;;;14.77;54.15;100652.44;6298939;22;20003;-80
2023/10/12 06:52:01;;;;;;;7.03;3.15;;;;;;;15.56;53.03;100658.03;6299576;22;20103;-83
2023/10/12 07:00:33;;;;;;;7.95;3.83;;;;;;;16.30;51.01;100711.50;6298624;22;20162;-85
2023/10/12 07:02:34;;;;;;;12.25;4.15;;;;;;;16.47;50.39;100719.09;6289854;22;20109;-86
2023/10/12 07:05:04;;;;;;;9.52;3.13;;;;;;;16.55;50.73;100711.78;6299491;22;20010;-86
2023/10/12 07:07:36;;;;;;;7.60;3.20;;;;;;;16.89;50.09;100662.19;6299888;22;20003;-84
2023/10/12 07:12:37;;;;;;;7.60;3.83;;;;;;;17.44;47.75;100705.13;6297705;22;20015;-84
2023/10/12 07:15:10;;;;;;;4.55;2.50;;;;;;;18.01;47.38;100716.91;6298727;22;20011;-87
2023/10/12 07:17:36;;;;;;;6.22;2.58;;;;;;;17.65;47.27;100695.69;6299170;22;20472;-87
2023/10/12 07:20:05;;;;;;;7.00;2.85;;;;;;;17.40;46.47;100655.50;6297794;22;19999;-84
2023/10/12 07:22:36;;;;;;;6.90;3.08;;;;;;;17.40;46.87;100648.34;6299037;22;20030;-88
2023/10/12 07:25:04;;;;;;;11.25;2.70;;;;;;;17.91;45.58;100691.41;6297738;22;20086;-89
2023/10/12 07:27:29;;;;;;;10.45;4.28;;;;;;;17.42;45.98;100641.16;6297124;22;20011;-86
2023/10/12 07:30:22;;;;;;;6.18;2.63;;;;;;;17.36;46.37;100666.25;6297888;22;20069;-82
2023/10/12 07:32:56;;;;;;;5.30;2.90;;;;;;;17.42;46.45;100688.31;6298711;22;20014;-84
2023/10/12 07:35:42;;;;;;;5.13;2.58;;;;;;;16.91;47.49;100679.84;6296469;22;20358;-86
2023/10/12 07:38:41;;;;;;;;;;;;;;;17.58;46.79;100713.66;6299104;22;20015;-87
2023/10/12 07:41:00;;;;;;;5.75;2.67;;;;;;;17.03;46.48;100637.84;6294845;22;20337;-83
2023/10/12 07:43:31;;;;;;;5.00;2.42;;;;;;;17.11;46.16;100636.69;6298515;22;20007;-81
2023/10/12 07:46:12;;;;;;;4.15;2.13;;;;;;;17.27;45.96;100677.16;6300199;22;20010;-79
2023/10/12 07:48:42;;;;;;;5.47;2.25;;;;;;;17.36;46.37;100660.00;6300274;22;20003;-81
2023/10/12 07:51:15;;;;;;;5.63;2.40;;;;;;;17.43;46.97;100636.75;6300165;22;20003;-85
2023/10/12 07:53:57;;;;;;;6.68;2.95;;;;;;;17.51;45.22;100624.03;6298604;22;20038;-82
2023/10/12 07:56:31;;;;;;;4.30;2.15;;;;;;;17.79;45.52;100666.78;6301120;22;20007;-82
2023/10/12 07:58:57;;;;;;;6.10;2.17;;;;;;;18.14;44.47;100669.38;6295931;22;20003;-90
2023/10/12 08:03:59;;;;;;;6.15;2.03;;;;;;;18.00;44.02;100621.75;6299220;22;20016;-85
2023/10/12 08:06:42;;;;;;;2.25;1.77;;;;;;;18.32;43.51;100676.81;6298549;22;20010;-84
2023/10/12 08:11:55;;;;;;;3.30;1.77;;;;;;;18.34;43.21;100639.38;6300441;22;20100;-84
2023/10/12 08:19:43;;;;;;;9.55;2.80;;;;;;;18.84;41.43;100606.53;6302611;22;20083;-83
2023/10/12 08:22:17;;;;;;;4.50;2.08;;;;;;;18.73;41.70;100610.44;6301098;22;20011;-83
2023/10/12 08:24:45;;;;;;;6.43;2.28;;;;;;;18.78;41.84;100596.91;6300756;22;20034;-83
2023/10/12 08:27:12;;;;;;;5.00;2.25;;;;;;;18.46;42.71;100582.88;6301595;22;20483;-83
2023/10/12 08:39:38;;;;;;;2.72;1.63;;;;;;;18.63;41.93;100590.31;6302533;22;20006;-82
2023/10/12 08:44:53;;;;;;;4.30;2.40;;;;;;;19.01;41.97;100553.34;6300680;22;20007;-83
2023/10/12 08:47:26;;;;;;;6.90;3.08;;;;;;;19.02;41.79;100560.47;6302158;22;20090;-82
2023/10/12 08:49:53;;;;;;;4.47;2.67;;;;;;;19.40;40.42;100584.94;6302334;22;20011;-85
2023/10/12 08:52:27;;;;;;;5.68;2.50;;;;;;;19.63;40.22;100585.84;6302602;22;20093;-81
2023/10/12 08:55:03;;;;;;;11.57;2.88;;;;;;;19.60;41.13;100564.53;6301554;22;20003;-79
2023/10/12 08:58:02;;;;;;;4.05;1.92;;;;;;;18.97;41.46;100525.00;6301886;22;20038;-82
2023/10/12 09:03:05;;;;;;;8.85;2.45;;;;;;;18.85;42.01;100589.59;6301761;22;19999;-82
2023/10/12 09:05:32;;;;;;;4.97;3.10;;;;;;;18.70;42.25;100548.22;6303047;22;20018;-80
2023/10/12 09:08:39;;;;;;;4.75;2.50;;;;;;;19.26;43.53;100624.66;6302573;22;19999;-83
2023/10/12 09:13:26;;;;;;;6.70;3.03;;;;;;;19.55;41.54;100564.72;6302557;22;20072;-83
2023/10/12 09:15:56;;;;;;;6.22;3.05;;;;;;;19.55;40.73;100521.91;6302545;22;20033;-83
2023/10/12 09:18:30;;;;;;;7.03;3.55;;;;;;;19.64;40.42;100553.66;6302384;22;20090;-84
2023/10/12 09:24:21;;;;;;;6.43;2.45;;;;;;;19.06;41.47;100553.19;6302900;22;20450;-86
2023/10/12 09:36:29;;;;;;;4.28;2.58;;;;;;;19.59;41.10;100520.00;6299142;22;19903;-83
2023/10/12 09:39:00;;;;;;;17.30;2.65;;;;;;;19.23;41.11;100485.72;6299795;22;20003;-85
2023/10/12 09:41:32;;;;;;;9.02;2.38;;;;;;;19.63;40.39;100460.06;6298974;22;20068;-87
2023/10/12 09:44:00;;;;;;;4.20;2.25;;;;;;;19.85;39.68;100484.19;6299299;22;20003;-84
2023/10/12 09:46:31;;;;;;;6.82;2.40;;;;;;;19.86;39.79;100502.00;6300023;22;20264;-83
2023/10/12 09:49:06;;;;;;;9.75;2.95;;;;;;;19.96;39.39;100510.53;6299104;22;20003;-83
2023/10/12 09:51:45;;;;;;;7.63;2.42;;;;;;;20.03;39.60;100494.16;6300351;22;20011;-83
2023/10/12 09:54:18;;;;;;;5.97;2.47;;;;;;;20.18;40.19;100475.69;6301659;22;20061;-83
2023/10/12 09:56:57;;;;;;;5.63;1.98;;;;;;;20.67;39.16;100527.19;6302891;22;20053;-84
2023/10/12 09:59:23;;;;;;;5.45;2.38;;;;;;;20.53;39.50;100498.28;6303141;22;20076;-83
2023/10/12 10:01:49;;;;;;;5.15;1.50;;;;;;;20.71;39.53;100496.66;6301758;22;20069;-85
2023/10/12 10:09:46;;;;;;;4.05;2.75;;;;;;;20.67;38.90;100475.41;6302324;22;20062;-82
2023/10/12 10:12:16;;;;;;;5.57;2.42;;;;;;;21.02;38.59;100492.59;6326190;22;20015;-81
2023/10/12 10:14:47;;;;;;;14.60;3.15;;;;;;;20.67;38.56;100465.53;6302021;22;20010;-83
2023/10/12 10:17:15;;;;;;;3.03;1.92;;;;;;;20.53;39.09;100446.50;6301763;22;20007;-83
2023/10/12 10:19:51;;;;;;;3.33;2.03;;;;;;;21.04;38.62;100468.38;6302074;22;20441;-85
2023/10/12 10:22:18;;;;;;;18.88;3.17;;;;;;;20.88;38.43;100465.50;6301784;22;20011;-82
2023/10/12 10:24:54;;;;;;;4.40;2.33;;;;;;;20.99;38.11;100468.59;6301490;22;20034;-83
2023/10/12 10:27:27;;;;;;;3.63;2.70;;;;;;;20.99;38.28;100460.53;6301349;22;20007;-82
2023/10/12 10:30:08;;;;;;;3.33;1.95;;;;;;;20.92;38.33;100459.06;6299716;22;20034;-82
2023/10/12 10:32:38;;;;;;;4.05;1.98;;;;;;;20.81;38.40;100453.34;6302211;22;20011;-82
2023/10/12 10:35:13;;;;;;;2.60;1.85;;;;;;;21.15;37.94;100436.53;6301985;22;20027;-82
2023/10/12 10:37:58;;;;;;;2.70;2.22;;;;;;;21.04;38.01;100454.97;6300779;22;20003;-82
2023/10/12 10:40:48;;;;;;;14.30;2.95;;;;;;;21.23;38.03;100437.03;6300716;22;20064;-81
2023/10/12 10:43:16;;;;;;;3.65;1.98;;;;;;;21.15;37.74;100409.72;6302055;22;20007;-82
2023/10/12 10:45:54;;;;;;;3.85;1.85;;;;;;;21.10;37.86;100412.63;6300824;22;20465;-82
2023/10/12 10:48:19;;;;;;;3.35;1.70;;;;;;;21.06;38.35;100419.06;6301939;22;20010;-82
2023/10/12 10:50:54;;;;;;;3.08;1.75;;;;;;;20.73;38.42;100376.81;6301839;22;20404;-83
2023/10/12 10:53:20;;;;;;;5.00;2.25;;;;;;;20.86;38.38;100395.00;6302021;22;20064;-82
2023/10/12 10:55:50;;;;;;;5.00;2.03;;;;;;;21.08;38.18;100393.03;6301409;22;20408;-83
2023/10/12 10:58:17;;;;;;;8.75;2.83;;;;;;;20.86;37.68;100374.41;6301594;22;20018;-82
2023/10/12 11:00:46;;;;;;;3.13;1.60;;;;;;;21.25;37.71;100405.63;6301594;22;20007;-82
2023/10/12 11:03:18;;;;;;;5.70;2.35;;;;;;;21.32;37.98;100398.19;6302350;22;20010;-83
2023/10/12 11:05:46;;;;;;;13.57;3.92;;;;;;;21.22;37.51;100384.31;6299916;22;20350;-82
2023/10/12 11:08:32;;;;;;;8.85;2.25;;;;;;;21.37;37.80;100382.72;6302353;22;20384;-83
2023/10/12 11:13:39;;;;;;;4.30;1.75;;;;;;;21.35;37.64;100340.78;6302286;22;20724;-82
2023/10/12 11:19:09;;;;;;;6.15;2.10;;;;;;;21.60;36.79;100330.59;6237008;23;20016;-85
2023/10/12 11:21:34;;;;;;;5.10;1.92;;;;;;;21.83;36.65;100358.09;6236933;23;20071;-82
2023/10/12 11:24:01;;;;;;;3.85;2.13;;;;;;;21.59;36.81;100369.13;6237289;23;20427;-81
2023/10/12 11:26:27;;;;;;;15.85;3.05;;;;;;;21.39;37.27;100315.56;6236198;23;20008;-86
2023/10/12 11:29:06;;;;;;;4.07;1.95;;;;;;;21.88;37.18;100358.72;6237100;23;20015;-86
2023/10/12 11:31:36;;;;;;;3.25;1.77;;;;;;;21.62;36.47;100282.22;6236976;23;20474;-87
2023/10/12 11:34:12;;;;;;;3.00;1.70;;;;;;;21.75;36.42;100333.44;6237422;23;20035;-84
2023/10/12 11:36:38;;;;;;;3.92;1.58;;;;;;;21.94;36.88;100338.75;6236469;23;20024;-83
2023/10/12 11:39:10;;;;;;;3.13;2.00;;;;;;;22.13;36.60;100338.63;6236633;23;20005;-83
2023/10/12 11:41:36;;;;;;;4.43;1.80;;;;;;;21.97;36.00;100344.81;6237212;23;20016;-82
2023/10/12 11:44:05;;;;;;;4.43;1.58;;;;;;;21.97;36.19;100315.28;6236996;23;20012;-82
2023/10/12 11:46:43;;;;;;;2.90;1.48;;;;;;;21.89;36.22;100314.81;6237172;23;20095;-82
2023/10/12 11:49:10;;;;;;;2.90;1.92;;;;;;;22.04;35.91;100339.97;6236332;23;20012;-81
2023/10/12 11:51:57;;;;;;;5.28;1.65;;;;;;;22.18;35.53;100312.38;6237054;23;20012;-81
2023/10/12 11:54:32;;;;;;;3.95;2.13;;;;;;;22.17;35.66;100305.31;6261221;22;20013;-82
2023/10/12 11:56:58;;;;;;;;;;;;;;;22.18;35.64;100325.81;6302448;22;20104;-81
2023/10/12 11:59:31;;;;;;;1.80;1.55;;;;;;;22.18;36.00;100297.16;6303813;22;19911;-80
2023/10/12 12:02:00;;;;;;;4.45;1.80;;;;;;;22.25;35.19;100300.38;6303863;22;20004;-82
2023/10/12 12:04:38;;;;;;;4.32;1.90;;;;;;;22.12;35.61;100292.13;6302971;22;20007;-81
2023/10/12 12:07:05;;;;;;;1.88;1.30;;;;;;;22.34;35.12;100282.94;6302516;22;20007;-84
2023/10/12 12:09:30;;;;;;;4.50;2.58;;;;;;;22.57;35.12;100283.47;6300736;22;19999;-85
2023/10/12 12:11:56;;;;;;;4.60;2.10;;;;;;;22.74;35.08;100272.66;6302551;22;20499;-86
2023/10/12 12:14:22;;;;;;;4.10;1.63;;;;;;;22.26;34.91;100226.00;6301766;22;20021;-83
2023/10/12 12:16:47;;;;;;;2.55;1.33;;;;;;;22.68;35.00;100265.78;6326949;22;20446;-81
2023/10/12 12:19:18;;;;;;;2.65;1.13;;;;;;;22.77;34.77;100264.41;6302742;22;20003;-86
2023/10/12 12:21:45;;;;;;;3.60;1.73;;;;;;;22.68;34.27;100257.72;6301149;22;20030;-82
2023/10/12 12:24:24;;;;;;;7.03;1.90;;;;;;;22.54;34.81;100252.25;6300921;22;20011;-82
2023/10/12 12:26:54;;;;;;;6.05;1.83;;;;;;;22.71;34.86;100254.00;6298650;22;20015;-83
2023/10/12 12:29:27;;;;;;;2.95;1.58;;;;;;;22.65;34.56;100239.06;6299908;22;20014;-83
2023/10/12 12:31:54;;;;;;;8.02;1.98;;;;;;;22.71;34.87;100254.84;6301460;22;20003;-86
2023/10/12 12:34:38;;;;;;;3.63;1.55;;;;;;;22.73;34.55;100251.22;6300672;22;20034;-84
2023/10/12 12:37:07;;;;;;;2.38;1.33;;;;;;;22.80;34.23;100231.97;6300736;22;20011;-81
2023/10/12 12:39:34;;;;;;;3.13;1.45;;;;;;;22.71;34.80;100219.03;6300406;22;20120;-87
2023/10/12 12:42:02;;;;;;;4.72;1.38;;;;;;;22.71;34.33;100210.97;6299530;22;20053;-82
2023/10/12 12:44:28;;;;;;;2.53;1.15;;;;;;;22.91;33.83;100231.34;6300010;22;20003;-87
2023/10/12 12:46:54;;;;;;;3.00;1.30;;;;;;;22.88;33.90;100191.16;6299514;22;20391;-87
2023/10/12 12:49:21;;;;;;;2.65;1.42;;;;;;;23.10;33.80;100211.47;6297201;22;20003;-83
2023/10/12 12:51:46;;;;;;;3.13;1.55;;;;;;;22.84;34.04;100174.31;6299616;22;19999;-88
2023/10/12 12:54:12;;;;;;;5.15;1.70;;;;;;;22.71;34.30;100170.66;6299937;22;20011;-90
2023/10/12 12:56:39;;;;;;;5.22;1.38;;;;;;;22.67;33.74;100139.50;6300087;22;20013;-87
2023/10/12 12:59:06;;;;;;;4.07;1.73;;;;;;;23.21;33.76;100222.44;6299863;22;20010;-86
2023/10/12 13:01:33;;;;;;;2.70;1.20;;;;;;;22.84;34.37;100177.00;6299074;22;20034;-85
2023/10/12 13:04:01;;;;;;;11.18;1.88;;;;;;;22.89;34.18;100166.88;6301275;22;20007;-87
2023/10/12 13:06:26;;;;;;;3.97;1.50;;;;;;;23.21;33.79;100199.09;6298409;22;20006;-84
2023/10/12 13:08:52;;;;;;;1.63;1.10;;;;;;;23.28;33.62;100171.81;6301216;22;20004;-84
2023/10/12 13:11:19;;;;;;;3.13;1.35;;;;;;;23.38;33.30;100181.91;6299184;22;20041;-85
2023/10/12 13:13:44;;;;;;;3.50;1.58;;;;;;;23.52;33.29;100180.22;6301009;22;20465;-85
2023/10/12 13:16:14;;;;;;;7.78;2.17;;;;;;;23.57;33.04;100186.19;6303007;22;20027;-89
2023/10/12 13:18:48;;;;;;;6.65;2.08;;;;;;;23.57;32.77;100187.06;6303200;22;20439;-89
2023/10/12 13:21:14;;;;;;;4.97;2.10;;;;;;;23.05;32.89;100134.53;6302566;22;20011;-87
2023/10/12 13:23:45;;;;;;;2.63;1.35;;;;;;;23.20;33.04;100157.00;6300741;22;20438;-88
2023/10/12 13:26:12;;;;;;;4.85;2.45;;;;;;;23.11;32.93;100143.22;6302999;22;19999;-87
2023/10/12 13:28:40;;;;;;;2.63;1.33;;;;;;;23.18;33.06;100140.06;6302991;22;20011;-87
2023/10/12 13:31:06;;;;;;;2.53;1.52;;;;;;;23.22;33.25;100162.31;6303287;22;20468;-86
2023/10/12 13:33:34;;;;;;;2.75;1.50;;;;;;;23.33;33.05;100161.66;6304193;22;20031;-85
2023/10/12 13:36:01;;;;;;;3.33;1.20;;;;;;;23.16;32.83;100130.38;6302331;22;20445;-85
2023/10/12 13:38:31;;;;;;;2.83;1.63;;;;;;;23.27;32.81;100144.03;6304143;22;20025;-85
2023/10/12 13:40:57;;;;;;;2.97;1.38;;;;;;;23.16;33.30;100133.06;6303836;22;19995;-85
2023/10/12 13:43:26;;;;;;;3.05;1.48;;;;;;;23.18;32.97;100112.31;6303851;22;20003;-84